Latest Weather Observations for Stawell

IDV60801

Issued at 8:52 am EST Saturday 24 August 2019 (issued every 10 minutes, with the page automatically refreshed every 10 minutes)

About weather observations | Map of weather stations | Latest weather observations for VIC | Other Formats
Station Details ID: 079105 Name: STAWELL AERODROME Lat: -37.07 Lon: 142.74 Height: 235.36 m
Data from the previous 72 hours. | See also: Recent months at Stawell
Date/Time
EST
Temp
°C
App
Temp
°C
Dew
Point
°C
Rel
Hum
%
Delta-T
°C
Wind Press
QNH
hPa
Press
MSL
hPa
Rain since
9am
mm
Dir  Spd
km/h
Gust
km/h
Spd
kts
Gust
kts
24/08:30am 6.3 3.0 2.4 76 1.6 NNE 9 15 5 8 1016.2 1016.5 0.0
24/08:00am 5.3 2.3 2.3 81 1.2 NE 7 9 4 5 1016.2 1016.5 0.0
24/07:30am 3.8 0.8 2.2 89 0.6 NE 7 9 4 5 1016.0 1016.3 0.0
24/07:00am 2.7 -0.4 1.1 89 0.6 NNE 7 9 4 5 1015.9 1016.2 0.0
24/06:30am 3.0 1.2 1.4 89 0.6 CALM 0 0 0 0 1015.9 1016.2 0.0
24/06:00am 3.6 1.9 1.8 88 0.7 CALM 0 0 0 0 1015.7 1016.0 0.0
24/05:30am 4.1 1.1 2.1 87 0.8 ENE 7 11 4 6 1015.9 1016.2 0.0
24/05:00am 3.0 0.1 1.5 90 0.6 N 6 11 3 6 1016.1 1016.4 0.0
24/04:30am 3.5 1.9 2.3 92 0.5 CALM 0 0 0 0 1016.5 1016.8 0.0
24/04:00am 3.7 1.0 2.4 91 0.5 NNW 6 9 3 5 1016.6 1016.9 0.0
24/03:30am 4.4 1.6 2.3 86 0.9 NW 6 7 3 4 1016.7 1017.0 0.0
24/03:00am 5.5 2.2 2.2 79 1.4 NNW 9 13 5 7 1017.3 1017.6 0.0
24/02:30am 6.4 3.1 2.7 77 1.6 NNE 9 15 5 8 1017.3 1017.6 0.0
24/02:00am 6.5 3.7 3.1 79 1.4 N 7 11 4 6 1018.0 1018.3 0.0
24/01:30am 6.7 3.5 3.3 79 1.5 N 9 11 5 6 1018.4 1018.7 0.0
24/01:00am 6.8 3.3 3.6 80 1.4 N 11 15 6 8 1018.6 1019.0 0.0
24/12:30am 6.9 3.9 4.0 82 1.3 N 9 13 5 7 1018.7 1019.1 0.0
24/12:00am 6.2 3.6 4.0 86 0.9 NNW 7 9 4 5 1019.0 1019.4 0.0
 
Date/Time
EST
Temp
°C
App
Temp
°C
Dew
Point
°C
Rel
Hum
%
Delta-T
°C
Wind Press
QNH
hPa
Press
MSL
hPa
Rain since
9am
mm
Dir  Spd
km/h
Gust
km/h
Spd
kts
Gust
kts
23/11:30pm 6.2 3.2 4.2 87 0.9 W 9 11 5 6 1019.1 1019.5 0.0
23/11:00pm 8.3 5.0 4.5 77 1.7 NNW 11 15 6 8 1019.0 1019.4 0.0
23/10:30pm 9.0 5.4 4.8 75 1.9 N 13 19 7 10 1019.0 1019.4 0.0
23/10:00pm 9.3 5.6 4.7 73 2.1 N 13 19 7 10 1019.3 1019.7 0.0
23/09:30pm 9.5 5.9 5.1 74 2.0 N 13 20 7 11 1019.4 1019.8 0.0
23/09:00pm 9.5 6.4 5.7 77 1.8 NNE 11 19 6 10 1019.7 1020.1 0.0
23/08:30pm 9.0 6.0 5.9 81 1.4 NE 11 17 6 9 1020.3 1020.6 0.0
23/08:00pm 9.2 6.3 6.3 82 1.4 NE 11 19 6 10 1020.6 1020.9 0.0
23/07:30pm 9.4 6.0 6.1 80 1.5 NNE 13 17 7 9 1020.5 1020.8 0.0
23/07:00pm 9.9 6.6 6.4 79 1.6 NNE 13 17 7 9 1020.7 1021.0 0.0
23/06:30pm 10.2 6.9 6.4 77 1.8 NNE 13 17 7 9 1020.8 1021.1 0.0
23/06:00pm 10.9 7.2 6.5 74 2.1 N 15 20 8 11 1020.8 1021.1 0.0
23/05:30pm 11.8 7.2 6.5 70 2.5 N 20 32 11 17 1020.5 1020.8 0.0
23/05:00pm 12.1 6.6 5.9 66 2.9 N 24 37 13 20 1020.1 1020.4 0.0
23/04:30pm 12.5 7.8 5.9 64 3.1 N 20 32 11 17 1020.3 1020.6 0.0
23/04:00pm 12.3 6.8 5.9 65 3.0 N 24 33 13 18 1020.4 1020.7 0.0
23/03:30pm 12.8 8.0 5.7 62 3.4 N 20 30 11 16 1020.8 1021.1 0.0
23/03:00pm 13.0 8.5 6.8 66 3.0 NNW 20 30 11 16 1021.1 1021.4 0.0
23/02:30pm 12.4 6.6 6.2 66 3.0 NNW 26 37 14 20 1021.5 1021.8 0.0
23/02:00pm 11.6 6.0 5.5 66 2.8 NNW 24 33 13 18 1022.0 1022.3 0.0
23/01:30pm 11.2 6.0 5.3 67 2.7 NNW 22 33 12 18 1022.5 1022.9 0.0
23/01:00pm 10.9 5.2 5.0 67 2.7 NNW 24 35 13 19 1023.2 1023.6 0.0
23/12:30pm 10.6 5.3 5.2 69 2.5 NNW 22 30 12 16 1023.7 1024.1 0.0
23/12:00pm 9.7 4.8 5.1 73 2.1 NNW 20 28 11 15 1024.2 1024.6 0.0
23/11:30am 9.0 4.2 4.8 75 1.9 N 19 26 10 14 1024.7 1025.0 0.0
23/11:00am 8.5 3.6 4.9 78 1.6 N 20 28 11 15 1024.9 1025.2 0.0
23/10:30am 7.6 3.1 4.4 80 1.4 N 17 20 9 11 1025.2 1025.5 0.0
23/10:00am 6.7 2.5 3.9 82 1.2 N 15 20 8 11 1025.6 1025.9 0.0
23/09:30am 5.2 2.6 4.3 94 0.4 NNW 7 11 4 6 1025.9 1026.3 0.0
23/09:00am 4.0 0.9 3.7 98 0.1 N 9 11 5 6 1026.0 1026.4 0.0
23/08:30am 2.8 0.5 2.7 99 0.0 W 4 7 2 4 1026.1 1026.5 0.0
23/08:00am 1.7 -0.1 1.4 98 0.1 CALM 0 7 0 4 1026.1 1026.5 0.0
23/07:30am 0.6 -1.3 0.3 98 0.1 CALM 0 2 0 1 1025.7 1026.0 0.0
23/07:00am 0.7 -2.9 0.4 98 0.1 ESE 9 11 5 6 1025.5 1025.8 0.0
23/06:30am 0.6 -3.0 0.3 98 0.1 ESE 9 11 5 6 1025.3 1025.6 0.0
23/06:00am 1.1 -2.5 0.8 98 0.1 ESE 9 11 5 6 1025.2 1025.5 0.0
23/05:30am 0.8 -2.8 0.5 98 0.1 ESE 9 11 5 6 1025.1 1025.4 0.0
23/05:00am 1.1 -2.5 0.7 97 0.1 ESE 9 11 5 6 1025.2 1025.5 0.0
23/04:30am 0.8 -2.5 0.4 97 0.1 ESE 7 9 4 5 1025.4 1025.7 0.0
23/04:00am 1.3 -1.7 0.9 97 0.2 ESE 6 7 3 4 1025.6 1025.9 0.0
23/03:30am 1.4 -0.5 0.8 96 0.2 CALM 0 0 0 0 1025.6 1025.9 0.0
23/03:00am 1.8 0.0 1.2 96 0.2 CALM 0 0 0 0 1025.9 1026.3 0.0
23/02:30am 2.0 0.2 1.4 96 0.2 CALM 0 0 0 0 1026.2 1026.6 0.0
23/02:00am 2.3 0.2 1.6 95 0.3 SW 2 6 1 3 1026.2 1026.6 0.0
23/01:30am 2.0 0.2 1.0 93 0.4 CALM 0 0 0 0 1026.3 1026.7 0.0
23/01:00am 3.9 1.2 2.7 92 0.5 E 6 7 3 4 1026.3 1026.7 0.0
23/12:30am 4.3 1.5 3.3 93 0.4 ESE 7 9 4 5 1026.3 1026.7 0.0
23/12:00am 4.1 1.4 2.9 92 0.5 E 6 9 3 5 1026.5 1026.9 0.0
 
Date/Time
EST
Temp
°C
App
Temp
°C
Dew
Point
°C
Rel
Hum
%
Delta-T
°C
Wind Press
QNH
hPa
Press
MSL
hPa
Rain since
9am
mm
Dir  Spd
km/h
Gust
km/h
Spd
kts
Gust
kts
22/11:30pm 4.6 1.9 2.9 89 0.7 NE 6 7 3 4 1026.7 1027.1 0.0
22/11:00pm 4.9 2.2 2.4 84 1.0 ESE 6 7 3 4 1026.8 1027.2 0.0
22/10:30pm 6.1 3.8 2.7 79 1.4 SE 4 7 2 4 1026.7 1027.1 0.0
22/10:00pm 7.2 3.9 2.7 73 1.9 S 9 11 5 6 1026.8 1027.2 0.0
22/09:30pm 7.6 4.0 2.7 71 2.1 S 11 15 6 8 1026.7 1027.1 0.0
22/09:00pm 8.2 4.9 2.7 68 2.3 SSE 9 13 5 7 1026.8 1027.2 0.0
22/08:30pm 8.5 4.5 2.9 68 2.4 S 13 17 7 9 1026.8 1027.2 0.0
22/08:00pm 8.8 4.9 3.2 68 2.4 S 13 17 7 9 1026.4 1026.8 0.0
22/07:30pm 9.1 5.2 3.5 68 2.5 S 13 20 7 11 1026.4 1026.8 0.0
22/07:00pm 9.3 5.3 3.1 65 2.7 S 13 19 7 10 1026.4 1026.8 0.0
22/06:30pm 9.7 5.0 3.0 63 2.9 S 17 22 9 12 1026.2 1026.6 0.0
22/06:00pm 10.1 5.0 2.9 61 3.1 S 19 24 10 13 1026.1 1026.5 0.0
22/05:30pm 10.9 6.4 2.2 55 3.8 S 15 22 8 12 1025.9 1026.3 0.0
22/05:00pm 11.4 5.8 1.4 50 4.2 S 20 26 11 14 1025.6 1025.9 0.0
22/04:30pm 12.0 6.6 2.2 51 4.3 S 20 28 11 15 1025.5 1025.8 0.0
22/04:00pm 12.2 6.5 2.6 52 4.2 S 22 32 12 17 1025.3 1025.6 0.0
22/03:30pm 12.7 7.5 3.4 53 4.2 S 20 33 11 18 1025.2 1025.5 0.0
22/03:00pm 12.6 7.3 3.0 52 4.3 S 20 33 11 18 1025.0 1025.3 0.0
22/02:30pm 12.5 6.6 3.7 55 4.0 S 24 33 13 18 1024.9 1025.2 0.0
22/02:00pm 12.4 6.8 3.4 54 4.0 S 22 35 12 19 1025.0 1025.3 0.0
22/01:30pm 12.4 6.0 3.4 54 4.1 S 26 41 14 22 1024.8 1025.1 0.0
22/01:00pm 12.4 6.4 3.1 53 4.1 SSW 24 39 13 21 1025.1 1025.4 0.0
22/12:30pm 12.2 5.1 3.4 55 4.0 S 30 48 16 26 1025.1 1025.4 0.0
22/12:29pm 12.4 5.4 4.1 57 3.8 S 30 48 16 26 1025.0 1025.3 0.0
22/12:00pm 12.2 6.7 4.2 58 3.6 SSW 22 35 12 19 1025.1 1025.4 0.0
22/11:30am 11.8 5.7 4.8 62 3.2 SSW 26 43 14 23 1025.3 1025.6 0.0
22/11:00am 11.5 5.5 5.2 65 2.9 SSW 26 41 14 22 1025.1 1025.4 0.0
22/10:49am 11.7 5.4 5.8 67 2.8 S 28 46 15 25 1025.1 1025.4 0.0
22/10:30am 11.4 6.5 6.7 73 2.3 S 22 35 12 19 1025.0 1025.3 0.0
22/10:00am 11.1 5.8 6.8 75 2.1 S 24 39 13 21 1024.5 1024.8 0.0
22/09:30am 10.7 5.3 6.5 75 2.0 SSW 24 43 13 23 1024.2 1024.6 0.0
22/09:00am 10.6 5.7 6.9 78 1.8 SSW 22 37 12 20 1023.8 1024.2 1.2
22/08:30am 10.6 6.2 6.7 77 1.9 SSW 19 28 10 15 1023.3 1023.7 1.2
22/08:00am 10.2 6.2 6.5 78 1.7 SSW 17 24 9 13 1023.0 1023.4 1.2
22/07:30am 10.0 7.1 6.3 78 1.7 SSW 11 24 6 13 1022.6 1023.0 1.2
22/07:00am 9.4 7.6 7.3 87 1.0 W 6 9 3 5 1022.4 1022.8 1.2
22/06:30am 9.3 6.2 7.4 88 0.9 SSW 13 20 7 11 1021.9 1022.2 1.2
22/06:00am 9.0 5.7 7.9 93 0.5 SSW 15 30 8 16 1021.6 1021.9 1.2
22/05:30am 9.2 5.6 8.3 94 0.4 SSW 17 24 9 13 1021.3 1021.6 1.0
22/05:00am 9.9 6.9 7.7 86 1.1 SSW 13 20 7 11 1020.9 1021.2 0.8
22/04:30am 9.6 6.6 7.7 88 0.9 SSW 13 20 7 11 1020.7 1021.0 0.8
22/04:00am 9.8 6.7 7.4 85 1.2 SW 13 24 7 13 1020.6 1020.9 0.8
22/03:30am 10.0 5.8 7.3 83 1.3 SW 19 32 10 17 1020.4 1020.7 0.8
22/03:00am 10.7 5.0 6.6 76 1.9 SW 26 48 14 26 1020.4 1020.7 0.8
22/02:30am 11.4 4.2 5.9 69 2.6 WSW 33 57 18 31 1020.3 1020.6 0.8
22/02:00am 11.0 4.6 7.1 77 1.9 WSW 30 52 16 28 1020.5 1020.8 0.8
22/01:30am 10.5 3.8 7.4 81 1.5 WSW 32 57 17 31 1020.3 1020.6 0.8
22/01:19am 10.9 5.0 7.6 80 1.6 WSW 28 50 15 27 1020.4 1020.7 0.8
22/01:00am 10.2 6.0 8.3 88 0.9 WSW 20 32 11 17 1020.4 1020.7 0.6
22/12:30am 10.6 5.2 7.8 83 1.4 WSW 26 46 14 25 1020.0 1020.3 0.2
22/12:00am 10.8 4.2 7.7 81 1.5 WSW 32 54 17 29 1019.7 1020.1 0.2
 
Date/Time
EST
Temp
°C
App
Temp
°C
Dew
Point
°C
Rel
Hum
%
Delta-T
°C
Wind Press
QNH
hPa
Press
MSL
hPa
Rain since
9am
mm
Dir  Spd
km/h
Gust
km/h
Spd
kts
Gust
kts
21/11:45pm 11.1 4.8 7.4 78 1.8 W 30 48 16 26 1019.7 1020.1 0.2
21/11:30pm 10.7 4.1 7.9 83 1.4 W 32 46 17 25 1019.8 1020.2 0.2
21/11:16pm 11.2 4.9 7.5 78 1.8 W 30 48 16 26 1020.2 1020.5 0.0
21/11:00pm 11.0 5.1 7.5 79 1.7 W 28 44 15 24 1020.1 1020.4 0.0
21/10:30pm 10.8 6.4 7.3 79 1.7 W 20 37 11 20 1020.5 1020.8 0.0
21/10:00pm 11.3 5.2 6.8 74 2.2 W 28 46 15 25 1020.9 1021.2 0.0
21/09:44pm 12.1 5.8 5.9 66 2.9 W 28 46 15 25 1020.9 1021.2 0.0
21/09:30pm 12.0 6.9 5.9 66 2.9 WSW 22 39 12 21 1021.0 1021.3 0.0
21/09:00pm 11.9 7.8 6.0 67 2.8 WSW 17 35 9 19 1021.2 1021.5 0.0
21/08:30pm 12.0 7.5 6.1 67 2.8 W 19 35 10 19 1021.0 1021.3 0.0
21/08:00pm 11.8 8.3 7.1 73 2.3 WSW 15 30 8 16 1021.8 1022.1 0.0
21/07:30pm 11.8 7.6 7.5 75 2.1 WSW 19 32 10 17 1021.3 1021.6 0.0
21/07:00pm 11.8 7.5 7.7 76 2.0 WSW 20 39 11 21 1021.3 1021.6 0.0
21/06:30pm 12.8 8.8 6.8 67 2.9 W 17 30 9 16 1021.2 1021.5 0.0
21/06:00pm 13.1 9.9 6.7 65 3.1 W 13 19 7 10 1021.2 1021.5 0.0
21/05:30pm 13.2 8.8 6.5 64 3.2 W 19 32 10 17 1020.8 1021.1 0.0
21/05:00pm 13.4 9.3 6.3 62 3.4 W 17 32 9 17 1020.7 1021.0 0.0
21/04:30pm 13.8 10.0 5.7 58 3.9 WSW 15 28 8 15 1021.0 1021.3 0.0
21/04:00pm 14.1 9.9 5.7 57 4.0 W 17 30 9 16 1021.1 1021.4 0.0
21/03:30pm 14.3 9.9 6.4 59 3.9 WSW 19 28 10 15 1021.0 1021.3 0.0
21/03:00pm 15.0 10.1 5.0 51 4.7 W 20 37 11 20 1020.7 1021.0 0.0
21/02:30pm 15.4 10.7 5.9 53 4.6 W 20 39 11 21 1020.5 1020.8 0.0
21/02:00pm 14.8 9.2 5.6 54 4.4 WSW 24 37 13 20 1020.6 1020.9 0.0
21/01:30pm 14.3 9.2 6.2 58 3.9 W 22 35 12 19 1021.0 1021.3 0.0
21/01:00pm 15.1 11.5 6.7 57 4.1 W 15 22 8 12 1021.4 1021.7 0.0
21/12:30pm 14.4 9.7 6.0 57 4.1 SW 20 28 11 15 1021.9 1022.2 0.0
21/12:00pm 14.0 9.5 6.1 59 3.8 WSW 19 30 10 16 1022.2 1022.6 0.0
21/11:30am 13.7 9.2 6.1 60 3.7 WSW 19 32 10 17 1022.3 1022.7 0.0
21/11:00am 13.8 10.2 6.7 62 3.5 WSW 15 24 8 13 1021.9 1022.2 0.0
21/10:30am 13.1 10.6 8.0 71 2.5 WSW 11 17 6 9 1021.7 1022.0 0.0
21/10:00am 12.9 10.1 8.4 74 2.3 W 13 20 7 11 1022.0 1022.3 0.0
21/09:30am 13.1 8.3 7.3 68 2.9 WSW 22 33 12 18 1021.9 1022.2 0.0
21/09:00am 12.6 8.3 7.7 72 2.4 WSW 20 33 11 18 1021.5 1021.8 0.0

Other formats

Comma delimited format used in spreadsheet applications
http://www.bom.gov.au/fwo/IDV60801/IDV60801.94836.axf

JavaScript Object Notation format (JSON) in row-major order
http://www.bom.gov.au/fwo/IDV60801/IDV60801.94836.json

Data quality

Most of these data are generated automatically and are frequently updated. Quality checks on data are not normally performed. It is possible for incorrect values to appear. Refer to information at About Latest Weather Observations and please check the disclaimer before using these data.